Main page
METAR-TAF:

METAR-TAF

Airports :

Inverness, Scotland

Inverness Airport

latitude: 57-32N, longitude: 004-03W, elevation: 9 m

Current weather observation

The report was made 26 minutes ago, at 15:20 UTC
Wind 13 kt from the Southwest
Temperature 8°C
Humidity 81%
Pressure 993 hPa
Visibility 10 km or more
Few clouds at a height of 2000 ft
Few clouds at a height of 3500 ft, Cumulonimbus.

METAR: EGPE 231520Z 23013KT 9999 FEW020 FEW035CB 08/05 Q0993

Time: 15:46 (15:46 UTC)

Forecast

The report was made 1 hour and 43 minutes ago, at 14:03 UTC
Forecast valid from 23 at 15 UTC to 23 at 24 UTC
Wind 15 kt from the West/Southwest
Visibility 10 km or more
Scattered clouds at a height of 3000 ft
Probability 40% :
Temporary
from 23 at 15 UTC to 23 at 21 UTC
Wind 18 kt from the West/Southwest with gusts up to 28 kt
Visibility: 4000 m
Broken clouds at a height of 1200 ft
rain

TAF: EGPE 231403Z 2315/2324 24015KT 9999 SCT030 PROB40 TEMPO 2315/2321 24018G28KT 4000 RA BKN012

Weather observations and forecasts of more than 4000 airports (METAR and TAF reports).

The available stations are represented by yellow and red dots on the map.

Hover mouse over dot to see the name of the station.

Then click to see weather observations and forecasts.

To change the map : click on the green buttons with a black cross to zoom in, on the green button with a dash to zoom out, or on the green arrows for adjacent maps.


METAR-TAF: